Orchards, Washington
Current Conditions -  °F | °C
As of 4:53 PM on Saturday 25 Oct 2014 (Local Time) from KVUO Reporting Station
Overcast Overcast  
Wind Chill: 60°   Ceiling: 6500
Heat Index: 60°   Visibility: 10mi
Dew Point: 52°   Wind: 15mph
Humidity: 75%   Direction: 160°SSE
Pressure: 29.43"   Gusts: 31mph
Location:  45.6907°N, 122.574°W
Report Text: KVUO 252353Z AUTO 16013G27KT 10SM SCT026 BKN065 OVC090 16/11 A2943 RMK AO2 PK WND 20031/2306 RAE47 SLP966 P0002 60004 T01560111 10183 20144 53015
Loading
Personal Weather Stations






























Interactive Weather Map
Tropical Storm Tracking
New forecast layout! Learn more

10-Day Weather Forecast

Advertisements
Track Severe Weather on mobile